Dati Storici

Data ora Umidita' aria (%) Temperatura aria (°C) Rad globale (W/m²) Gonioanemometro (°) Tacoanemometro (m/s) Pioggia (mm)
09-06-2020 15:30 73.1 % 22.564 -72.257 1.825 0 0
09-06-2020 15:20 72.8 % 22.443 -72.612 1.109 0 0
09-06-2020 15:10 74.4 % 22.701 -68.9 1.094 0 0
09-06-2020 15:00 73 % 22.706 -70.515 1.48 0 0
09-06-2020 14:50 73.5 % 22.505 -71.464 0.408 0 0
09-06-2020 14:40 74.1 % 22.692 -70.733 1.238 0 0
09-06-2020 14:30 73.3 % 22.429 -71.375 3.332 0 0
09-06-2020 14:20 74.1 % 21.567 -72.874 1.929 0 0
09-06-2020 14:10 72.5 % 22.31 -70.984 2.75 0 0
09-06-2020 14:00 74.1 % 21.882 -63.725 -0.019 0 0
09-06-2020 13:50 71.4 % 22.678 -77.702 0.93 0 0
09-06-2020 13:40 74.1 % 23.121 -75.601 1.896 0 0
09-06-2020 13:30 74.1 % 22.06 -73.769 -0.019 0 0
09-06-2020 13:20 72.8 % 22.417 -72.773 1.458 0 0
09-06-2020 13:10 73.6 % 21.777 -73.305 2.255 0 0
09-06-2020 13:00 74.6 % 21.214 -72.28 0.669 0 0
09-06-2020 12:50 71.6 % 21.706 -76.232 0.318 0 0
09-06-2020 12:40 72.6 % 21.874 -74.089 0.045 0 0
09-06-2020 12:30 73.5 % 21.952 -75.314 -0.021 0 0
09-06-2020 12:20 70.9 % 21.397 -79.789 1.224 0 0

I dati sono presentati in modo automatico a scopo informativo. In seguito a verifica i dati possono subire modifiche o essere invalidati e non riportati negli archivi definitivi.